Time;durP1;ratioP1;P1;durP2;ratioP2;P2;SDS_P1;SDS_P2;PMS_P1;PMS_P2;Temp;Humidity;BMP_temperature;BMP_pressure;BME280_temperature;BME280_humidity;BME280_pressure;Samples;Min_cycle;Max_cycle;Signal;HPM_P1;HPM_P2
2021/05/21 00:00:28;;;;;;;4.97;2.07;;;;;;;;;;5075809;28;20444;-77
2021/05/21 00:02:55;;;;;;;2.33;2.00;;;;;;;;;;5076503;28;20497;-77
2021/05/21 00:05:22;;;;;;;3.70;2.10;;;;;;;;;;5075343;28;20447;-77
2021/05/21 00:07:49;;;;;;;2.80;1.90;;;;;;;;;;5075869;28;20784;-77
2021/05/21 00:10:15;;;;;;;1.90;1.80;;;;;;;;;;5075327;28;20452;-77
2021/05/21 00:12:43;;;;;;;2.70;2.40;;;;;;;;;;5075773;28;20540;-77
2021/05/21 00:15:10;;;;;;;2.30;2.10;;;;;;;;;;5075612;28;20450;-76
2021/05/21 00:17:37;;;;;;;1.73;1.63;;;;;;;;;;5075706;28;20455;-77
2021/05/21 00:20:04;;;;;;;1.70;1.60;;;;;;;;;;5075180;28;20453;-78
2021/05/21 00:22:31;;;;;;;3.53;2.43;;;;;;;;;;5075844;28;20432;-76
2021/05/21 00:24:57;;;;;;;5.67;2.30;;;;;;;;;;5073838;28;20445;-76
2021/05/21 00:27:24;;;;;;;2.73;2.20;;;;;;;;;;5075155;28;20586;-77
2021/05/21 00:29:51;;;;;;;2.17;1.97;;;;;;;;;;5075135;28;20464;-76
2021/05/21 00:32:18;;;;;;;2.00;1.80;;;;;;;;;;5075850;28;20448;-77
2021/05/21 00:34:45;;;;;;;2.43;2.00;;;;;;;;;;5075174;28;20450;-77
2021/05/21 00:37:11;;;;;;;2.17;2.07;;;;;;;;;;5075403;28;20873;-76
2021/05/21 00:39:38;;;;;;;2.90;2.13;;;;;;;;;;5075065;28;20441;-76
2021/05/21 00:42:08;;;;;;;2.30;2.10;;;;;;;;;;5075303;28;20432;-76
2021/05/21 00:44:35;;;;;;;3.33;2.10;;;;;;;;;;5074921;28;20437;-76
2021/05/21 00:47:02;;;;;;;2.37;1.83;;;;;;;;;;5075005;28;20575;-76
2021/05/21 00:49:29;;;;;;;4.07;2.10;;;;;;;;;;5075385;28;20448;-76
2021/05/21 00:51:56;;;;;;;1.97;1.87;;;;;;;;;;5074799;28;20796;-76
2021/05/21 00:54:22;;;;;;;2.50;2.30;;;;;;;;;;5074776;28;20436;-75
2021/05/21 00:56:49;;;;;;;1.90;1.80;;;;;;;;;;5074680;28;20444;-75
2021/05/21 00:59:16;;;;;;;2.50;2.10;;;;;;;;;;5074263;28;20454;-75
2021/05/21 01:01:43;;;;;;;4.10;2.10;;;;;;;;;;5074449;28;20452;-76
2021/05/21 01:04:11;;;;;;;2.10;1.90;;;;;;;;;;5074506;28;20440;-76
2021/05/21 01:06:38;;;;;;;2.17;1.97;;;;;;;;;;5074829;28;20967;-75
2021/05/21 01:09:04;;;;;;;2.40;1.93;;;;;;;;;;5074304;28;20437;-75
2021/05/21 01:11:31;;;;;;;2.03;1.83;;;;;;;;;;5074083;28;20444;-75
2021/05/21 01:13:58;;;;;;;2.30;1.90;;;;;;;;;;5074406;28;20493;-76
2021/05/21 01:16:24;;;;;;;2.80;1.90;;;;;;;;;;5073965;28;20447;-75
2021/05/21 01:18:51;;;;;;;2.20;1.90;;;;;;;;;;5074391;28;20541;-76
2021/05/21 01:21:19;;;;;;;2.40;2.03;;;;;;;;;;5074537;28;20462;-76
2021/05/21 01:23:45;;;;;;;5.83;2.10;;;;;;;;;;5074362;28;21044;-75
2021/05/21 01:26:12;;;;;;;2.07;1.80;;;;;;;;;;5074049;28;20450;-75
2021/05/21 01:28:39;;;;;;;4.53;2.07;;;;;;;;;;5074035;28;20633;-76
2021/05/21 01:31:06;;;;;;;2.13;2.03;;;;;;;;;;5074070;28;20464;-76
2021/05/21 01:33:32;;;;;;;5.00;1.80;;;;;;;;;;5074472;28;20432;-76
2021/05/21 01:35:59;;;;;;;3.10;1.97;;;;;;;;;;5073657;28;20440;-76
2021/05/21 01:38:27;;;;;;;3.00;2.17;;;;;;;;;;5073942;28;20808;-76
2021/05/21 01:40:55;;;;;;;4.63;2.80;;;;;;;;;;5074269;28;20458;-77
2021/05/21 01:43:22;;;;;;;2.37;2.17;;;;;;;;;;5074163;28;20452;-76
2021/05/21 01:45:48;;;;;;;3.63;1.65;;;;;;;;;;5074209;28;20450;-76
2021/05/21 01:48:15;;;;;;;1.87;1.73;;;;;;;;;;5073891;28;20260;-76
2021/05/21 01:50:42;;;;;;;5.10;1.53;;;;;;;;;;5073859;28;20439;-76
2021/05/21 01:53:09;;;;;;;1.70;1.60;;;;;;;;;;5073446;28;20488;-76
2021/05/21 01:55:36;;;;;;;4.33;1.80;;;;;;;;;;5074247;28;20871;-76
2021/05/21 01:58:03;;;;;;;2.43;1.80;;;;;;;;;;5073433;28;20456;-76
2021/05/21 02:00:30;;;;;;;1.80;1.70;;;;;;;;;;5073949;28;20437;-76
2021/05/21 02:02:57;;;;;;;2.90;2.37;;;;;;;;;;5073817;28;20494;-76
2021/05/21 02:05:23;;;;;;;4.20;1.67;;;;;;;;;;5073599;28;20444;-78
2021/05/21 02:07:50;;;;;;;2.80;1.90;;;;;;;;;;5073518;28;20533;-77
2021/05/21 02:10:17;;;;;;;1.80;1.70;;;;;;;;;;5073323;28;20455;-77
2021/05/21 02:12:45;;;;;;;1.90;1.73;;;;;;;;;;5073565;28;20470;-77
2021/05/21 02:15:12;;;;;;;2.30;2.10;;;;;;;;;;5073931;28;20523;-77
2021/05/21 02:17:39;;;;;;;1.83;1.73;;;;;;;;;;5073523;28;20440;-76
2021/05/21 02:20:06;;;;;;;4.00;2.00;;;;;;;;;;5073997;28;20194;-76
2021/05/21 02:22:33;;;;;;;8.33;2.30;;;;;;;;;;5073449;28;20523;-76
2021/05/21 02:25:01;;;;;;;1.90;1.80;;;;;;;;;;5073355;28;20497;-76
2021/05/21 02:27:28;;;;;;;2.70;1.90;;;;;;;;;;5073416;28;20574;-76
2021/05/21 02:29:56;;;;;;;1.87;1.70;;;;;;;;;;5073583;28;20540;-76
2021/05/21 02:32:23;;;;;;;3.73;2.23;;;;;;;;;;5073357;28;20458;-76
2021/05/21 02:34:49;;;;;;;4.30;2.20;;;;;;;;;;5073011;28;20440;-75
2021/05/21 02:37:16;;;;;;;2.70;1.80;;;;;;;;;;5073509;28;20451;-77
2021/05/21 02:39:43;;;;;;;1.90;1.80;;;;;;;;;;5073304;28;20815;-77
2021/05/21 02:42:10;;;;;;;3.83;1.67;;;;;;;;;;5073229;28;20470;-79
2021/05/21 02:44:37;;;;;;;2.10;2.00;;;;;;;;;;5073411;28;20455;-79
2021/05/21 02:47:05;;;;;;;5.90;1.83;;;;;;;;;;5073657;28;20537;-76
2021/05/21 02:49:34;;;;;;;2.13;1.80;;;;;;;;;;5077117;28;20538;-76
2021/05/21 02:52:00;;;;;;;2.10;1.90;;;;;;;;;;5077499;28;20989;-76
2021/05/21 02:54:27;;;;;;;2.20;2.00;;;;;;;;;;5076924;28;20444;-76
2021/05/21 02:56:54;;;;;;;2.10;1.90;;;;;;;;;;5076923;28;20436;-77
2021/05/21 02:59:21;;;;;;;1.93;1.83;;;;;;;;;;5076921;28;20440;-77
2021/05/21 03:01:47;;;;;;;5.40;1.80;;;;;;;;;;5076862;28;20444;-77
2021/05/21 03:04:15;;;;;;;3.13;2.20;;;;;;;;;;5076664;28;20811;-76
2021/05/21 03:06:42;;;;;;;1.85;1.70;;;;;;;;;;5076352;28;20467;-76
2021/05/21 03:09:08;;;;;;;2.50;1.87;;;;;;;;;;5076630;28;20194;-77
2021/05/21 03:11:35;;;;;;;2.50;2.00;;;;;;;;;;5076535;28;20443;-76
2021/05/21 03:14:02;;;;;;;1.80;1.70;;;;;;;;;;5076793;28;20439;-77
2021/05/21 03:16:28;;;;;;;8.23;2.70;;;;;;;;;;5076234;28;20953;-77
2021/05/21 03:18:55;;;;;;;1.73;1.60;;;;;;;;;;5076623;28;20479;-77
2021/05/21 03:21:23;;;;;;;6.73;1.90;;;;;;;;;;5076643;28;20436;-76
2021/05/21 03:23:49;;;;;;;3.97;2.35;;;;;;;;;;5076402;28;20534;-76
2021/05/21 03:26:16;;;;;;;5.70;2.07;;;;;;;;;;5076321;28;20194;-76
2021/05/21 03:28:43;;;;;;;2.53;2.33;;;;;;;;;;5076064;28;20458;-76
2021/05/21 03:31:10;;;;;;;3.60;1.70;;;;;;;;;;5076198;28;20464;-75
2021/05/21 03:33:36;;;;;;;2.27;2.07;;;;;;;;;;5075925;28;20201;-76
2021/05/21 03:36:03;;;;;;;2.20;2.10;;;;;;;;;;5076190;28;20907;-76
2021/05/21 03:38:31;;;;;;;3.60;2.00;;;;;;;;;;5075843;28;20449;-76
2021/05/21 03:40:58;;;;;;;2.50;1.70;;;;;;;;;;5075658;28;20446;-75
2021/05/21 03:43:24;;;;;;;4.90;1.90;;;;;;;;;;5075769;28;20941;-76
2021/05/21 03:45:51;;;;;;;3.63;1.90;;;;;;;;;;5075650;28;20202;-76
2021/05/21 03:48:18;;;;;;;4.00;2.20;;;;;;;;;;5075499;28;20990;-77
2021/05/21 03:50:44;;;;;;;2.03;1.90;;;;;;;;;;5075876;28;20799;-76
2021/05/21 03:53:11;;;;;;;2.60;2.40;;;;;;;;;;5076128;28;20439;-76
2021/05/21 03:55:39;;;;;;;2.30;1.80;;;;;;;;;;5076041;28;20794;-77
2021/05/21 03:58:05;;;;;;;4.03;2.30;;;;;;;;;;5075364;28;20447;-76
2021/05/21 04:00:32;;;;;;;2.67;2.40;;;;;;;;;;5075687;28;20459;-75
2021/05/21 04:02:59;;;;;;;1.93;1.83;;;;;;;;;;5075928;28;20451;-76
2021/05/21 04:05:26;;;;;;;3.30;2.10;;;;;;;;;;5075797;28;20538;-76
2021/05/21 04:07:52;;;;;;;2.10;1.80;;;;;;;;;;5076008;28;20559;-75
2021/05/21 04:10:19;;;;;;;2.83;2.07;;;;;;;;;;5075030;28;20448;-76
2021/05/21 04:12:47;;;;;;;2.70;1.83;;;;;;;;;;5075447;28;20440;-76
2021/05/21 04:15:14;;;;;;;2.77;2.10;;;;;;;;;;5075739;28;20511;-77
2021/05/21 04:17:41;;;;;;;2.90;2.17;;;;;;;;;;5075336;28;20447;-76
2021/05/21 04:20:08;;;;;;;8.63;1.90;;;;;;;;;;5075102;28;20445;-77
2021/05/21 04:22:35;;;;;;;3.40;2.10;;;;;;;;;;5075472;28;20842;-77
2021/05/21 04:25:01;;;;;;;3.30;2.43;;;;;;;;;;5075121;28;20447;-75
2021/05/21 04:27:28;;;;;;;4.17;2.40;;;;;;;;;;5073983;28;20509;-76
2021/05/21 04:29:56;;;;;;;3.00;2.00;;;;;;;;;;5074869;28;20526;-76
2021/05/21 04:32:22;;;;;;;3.17;2.30;;;;;;;;;;5074828;28;20538;-76
2021/05/21 04:34:51;;;;;;;4.03;2.10;;;;;;;;;;5074746;28;20534;-76
2021/05/21 04:37:18;;;;;;;2.03;1.80;;;;;;;;;;5074747;28;20452;-76
2021/05/21 04:39:45;;;;;;;4.40;1.90;;;;;;;;;;5074703;28;20912;-77
2021/05/21 04:42:12;;;;;;;2.30;2.00;;;;;;;;;;5074927;28;20440;-77
2021/05/21 04:44:38;;;;;;;5.60;1.97;;;;;;;;;;5074961;28;20498;-78
2021/05/21 04:47:07;;;;;;;7.95;2.05;;;;;;;;;;5074322;28;20475;-78
2021/05/21 04:49:34;;;;;;;3.93;1.93;;;;;;;;;;5075181;28;20212;-78
2021/05/21 04:52:01;;;;;;;6.07;2.13;;;;;;;;;;5074300;28;20489;-77
2021/05/21 04:54:28;;;;;;;4.03;2.07;;;;;;;;;;5074572;28;20434;-77
2021/05/21 04:56:55;;;;;;;1.97;1.87;;;;;;;;;;5073109;28;20455;-77
2021/05/21 04:59:22;;;;;;;9.23;2.80;;;;;;;;;;5074311;28;20441;-77
2021/05/21 05:01:48;;;;;;;2.63;2.40;;;;;;;;;;5073760;28;20212;-77
2021/05/21 05:04:16;;;;;;;3.90;2.07;;;;;;;;;;5074814;28;20441;-76
2021/05/21 05:06:43;;;;;;;5.60;2.40;;;;;;;;;;5073849;28;20486;-77
2021/05/21 05:09:10;;;;;;;3.70;1.80;;;;;;;;;;5074397;28;20454;-78
2021/05/21 05:11:39;;;;;;;1.80;1.70;;;;;;;;;;5074267;28;20453;-78
2021/05/21 05:14:06;;;;;;;3.13;2.20;;;;;;;;;;5074720;28;20812;-77
2021/05/21 05:16:32;;;;;;;2.17;1.97;;;;;;;;;;5073754;28;20437;-77
2021/05/21 05:18:59;;;;;;;6.27;1.80;;;;;;;;;;5074574;28;20436;-78
2021/05/21 05:21:27;;;;;;;4.43;1.77;;;;;;;;;;5074043;28;20872;-76
2021/05/21 05:23:54;;;;;;;2.13;1.60;;;;;;;;;;5073937;28;20463;-76
2021/05/21 05:26:21;;;;;;;1.97;1.87;;;;;;;;;;5074088;28;20444;-77
2021/05/21 05:28:49;;;;;;;2.50;1.87;;;;;;;;;;5074213;28;20830;-79
2021/05/21 05:31:16;;;;;;;2.90;1.90;;;;;;;;;;5073247;28;20486;-75
2021/05/21 05:33:43;;;;;;;1.87;1.77;;;;;;;;;;5074052;28;20455;-74
2021/05/21 05:36:10;;;;;;;5.07;2.03;;;;;;;;;;5074393;28;20527;-82
2021/05/21 05:38:37;;;;;;;8.60;2.00;;;;;;;;;;5073817;28;20428;-82
2021/05/21 05:41:04;;;;;;;3.57;2.00;;;;;;;;;;5073369;28;20817;-83
2021/05/21 05:43:31;;;;;;;2.17;1.97;;;;;;;;;;5074185;28;20441;-82
2021/05/21 05:45:57;;;;;;;4.70;2.20;;;;;;;;;;5073616;28;20450;-82
2021/05/21 05:48:24;;;;;;;5.10;2.83;;;;;;;;;;5073573;28;20475;-82
2021/05/21 05:50:51;;;;;;;3.00;1.90;;;;;;;;;;5073874;28;20448;-82
2021/05/21 05:53:18;;;;;;;2.43;2.00;;;;;;;;;;5073961;28;20451;-83
2021/05/21 05:55:46;;;;;;;3.80;1.77;;;;;;;;;;5073621;28;20527;-83
2021/05/21 05:58:13;;;;;;;7.07;4.13;;;;;;;;;;5073894;28;20483;-83
2021/05/21 06:00:39;;;;;;;2.77;1.97;;;;;;;;;;5073680;28;20450;-82
2021/05/21 06:03:06;;;;;;;5.77;2.40;;;;;;;;;;5073242;28;20447;-82
2021/05/21 06:05:33;;;;;;;5.60;2.00;;;;;;;;;;5074200;28;20447;-82
2021/05/21 06:08:02;;;;;;;3.03;2.33;;;;;;;;;;5073480;28;20472;-83
2021/05/21 06:10:29;;;;;;;2.50;2.13;;;;;;;;;;5073916;28;20453;-82
2021/05/21 06:13:00;;;;;;;3.10;2.37;;;;;;;;;;5073186;28;20935;-82
2021/05/21 06:15:27;;;;;;;3.93;2.10;;;;;;;;;;5073316;28;20440;-78
2021/05/21 06:17:54;;;;;;;3.00;2.73;;;;;;;;;;5073993;28;20498;-78
2021/05/21 06:20:21;;;;;;;2.37;2.17;;;;;;;;;;5073043;28;20458;-77
2021/05/21 06:22:48;;;;;;;6.03;2.60;;;;;;;;;;5076036;28;20981;-74
2021/05/21 06:25:18;;;;;;;2.67;2.28;;;;;;;;;;5077678;28;20286;-74
2021/05/21 06:27:45;;;;;;;5.70;2.40;;;;;;;;;;5077125;28;20218;-73
2021/05/21 06:30:13;;;;;;;6.03;3.50;;;;;;;;;;5077675;28;20816;-74
2021/05/21 06:32:42;;;;;;;6.97;3.08;;;;;;;;;;5076966;28;20649;-73
2021/05/21 06:35:09;;;;;;;3.60;2.97;;;;;;;;;;5077459;28;20229;-72
2021/05/21 06:37:36;;;;;;;4.85;3.83;;;;;;;;;;5077084;28;20204;-72
2021/05/21 06:40:03;;;;;;;3.10;2.88;;;;;;;;;;5077429;28;20675;-73
2021/05/21 06:42:30;;;;;;;4.45;3.45;;;;;;;;;;5076762;28;20288;-73
2021/05/21 06:44:56;;;;;;;5.97;3.50;;;;;;;;;;5077088;28;20283;-73
2021/05/21 06:47:24;;;;;;;2.90;2.70;;;;;;;;;;5077473;28;20489;-73
2021/05/21 06:49:51;;;;;;;3.80;3.27;;;;;;;;;;5076859;28;20440;-73
2021/05/21 06:52:19;;;;;;;5.63;2.95;;;;;;;;;;5076886;28;20529;-73
2021/05/21 06:54:46;;;;;;;8.10;3.47;;;;;;;;;;5076754;28;20232;-74
2021/05/21 06:57:12;;;;;;;4.20;2.30;;;;;;;;;;5076709;28;20205;-74
2021/05/21 06:59:39;;;;;;;2.87;2.60;;;;;;;;;;5076902;28;20470;-73
2021/05/21 07:02:06;;;;;;;8.33;2.53;;;;;;;;;;5076854;28;20443;-74
2021/05/21 07:04:33;;;;;;;3.60;2.70;;;;;;;;;;5076576;28;20739;-73
2021/05/21 07:07:00;;;;;;;7.43;2.80;;;;;;;;;;5076454;28;20570;-75
2021/05/21 07:09:27;;;;;;;4.07;2.53;;;;;;;;;;5076361;28;20480;-74
2021/05/21 07:11:54;;;;;;;6.07;3.07;;;;;;;;;;5076641;28;20471;-74
2021/05/21 07:14:20;;;;;;;7.60;4.07;;;;;;;;;;5076692;28;20581;-74
2021/05/21 07:16:47;;;;;;;3.30;2.60;;;;;;;;;;5076956;28;20440;-75
2021/05/21 07:19:16;;;;;;;5.27;3.50;;;;;;;;;;5076432;28;20431;-74
2021/05/21 07:21:43;;;;;;;3.00;2.63;;;;;;;;;;5076079;28;20440;-74
2021/05/21 07:24:10;;;;;;;3.93;2.63;;;;;;;;;;5076034;28;20527;-74
2021/05/21 07:26:37;;;;;;;5.93;2.93;;;;;;;;;;5076587;28;20937;-74
2021/05/21 07:29:04;;;;;;;7.23;3.27;;;;;;;;;;5075884;28;20486;-75
2021/05/21 07:31:31;;;;;;;5.83;3.23;;;;;;;;;;5076393;28;20532;-75
2021/05/21 07:33:58;;;;;;;7.37;4.10;;;;;;;;;;5075105;28;20510;-75
2021/05/21 07:36:25;;;;;;;10.13;4.63;;;;;;;;;;5075856;28;20446;-75
2021/05/21 07:38:53;;;;;;;3.30;3.00;;;;;;;;;;5076379;28;20201;-75
2021/05/21 07:41:22;;;;;;;7.33;3.27;;;;;;;;;;5076208;28;20452;-76
2021/05/21 07:43:49;;;;;;;6.20;3.50;;;;;;;;;;5075932;28;20453;-76
2021/05/21 07:46:16;;;;;;;7.30;2.83;;;;;;;;;;5076135;28;20439;-76
2021/05/21 07:48:43;;;;;;;5.50;2.67;;;;;;;;;;5075917;28;20511;-76
2021/05/21 07:51:10;;;;;;;13.23;3.40;;;;;;;;;;5075851;28;20519;-77
2021/05/21 07:53:37;;;;;;;7.37;3.80;;;;;;;;;;5075652;28;20515;-76
2021/05/21 07:56:05;;;;;;;6.07;3.47;;;;;;;;;;5075285;28;20531;-77
2021/05/21 07:58:31;;;;;;;5.83;3.50;;;;;;;;;;5076113;28;20439;-76
2021/05/21 08:00:58;;;;;;;14.63;3.73;;;;;;;;;;5075491;28;20467;-77
2021/05/21 08:03:25;;;;;;;5.57;3.97;;;;;;;;;;5075134;28;20480;-77
2021/05/21 08:05:52;;;;;;;10.43;3.10;;;;;;;;;;5075135;28;20582;-78
2021/05/21 08:08:21;;;;;;;6.50;3.50;;;;;;;;;;5075353;28;20877;-77
2021/05/21 08:10:49;;;;;;;3.20;3.00;;;;;;;;;;5075099;28;20456;-77
2021/05/21 08:13:16;;;;;;;6.70;3.03;;;;;;;;;;5075028;28;20826;-75
2021/05/21 08:15:43;;;;;;;4.83;3.03;;;;;;;;;;5075376;28;20483;-77
2021/05/21 08:18:10;;;;;;;4.40;3.33;;;;;;;;;;5074910;28;20444;-77
2021/05/21 08:20:37;;;;;;;4.83;3.60;;;;;;;;;;5075330;28;20451;-76
2021/05/21 08:23:04;;;;;;;12.10;3.40;;;;;;;;;;5075587;28;20528;-77
2021/05/21 08:25:30;;;;;;;8.23;3.17;;;;;;;;;;5075561;28;20939;-77
2021/05/21 08:27:57;;;;;;;4.83;2.70;;;;;;;;;;5074755;28;20498;-76
2021/05/21 08:30:25;;;;;;;11.33;4.20;;;;;;;;;;5075084;28;20563;-77
2021/05/21 08:32:52;;;;;;;5.90;4.03;;;;;;;;;;5075193;28;20432;-76
2021/05/21 08:35:20;;;;;;;7.30;4.47;;;;;;;;;;5074985;28;20773;-76
2021/05/21 08:37:47;;;;;;;8.53;3.33;;;;;;;;;;5074841;28;20475;-77
2021/05/21 08:40:21;;;;;;;6.13;3.33;;;;;;;;;;5074839;28;20448;-76
2021/05/21 08:42:56;;;;;;;10.20;3.97;;;;;;;;;;5074525;28;20420;-76
2021/05/21 08:45:23;;;;;;;10.53;4.50;;;;;;;;;;5074106;28;20424;-76
2021/05/21 08:47:51;;;;;;;4.13;2.57;;;;;;;;;;5074385;28;20562;-77
2021/05/21 08:50:18;;;;;;;4.40;3.37;;;;;;;;;;5074507;28;20442;-77
2021/05/21 08:52:46;;;;;;;8.00;2.57;;;;;;;;;;5074203;28;20531;-77
2021/05/21 08:55:14;;;;;;;7.40;3.30;;;;;;;;;;5074565;28;20848;-74
2021/05/21 08:57:40;;;;;;;12.80;3.37;;;;;;;;;;5074339;28;20463;-74
2021/05/21 09:00:07;;;;;;;7.50;3.37;;;;;;;;;;5074673;28;20436;-74
2021/05/21 09:02:34;;;;;;;4.83;3.00;;;;;;;;;;5074584;28;20528;-74
2021/05/21 09:05:02;;;;;;;6.80;3.03;;;;;;;;;;5074349;28;20497;-74
2021/05/21 09:07:30;;;;;;;8.20;4.10;;;;;;;;;;5074384;28;20800;-75
2021/05/21 09:09:58;;;;;;;7.97;3.43;;;;;;;;;;5074558;28;20826;-75
2021/05/21 09:12:25;;;;;;;9.80;3.47;;;;;;;;;;5074717;28;20927;-75
2021/05/21 09:15:05;;;;;;;12.00;3.63;;;;;;;;;;5073840;28;20950;-74
2021/05/21 09:17:32;;;;;;;3.70;2.90;;;;;;;;;;5073812;28;20448;-74
2021/05/21 09:19:59;;;;;;;8.63;3.27;;;;;;;;;;5074009;28;20445;-75
2021/05/21 09:22:26;;;;;;;10.20;3.53;;;;;;;;;;5073886;28;20442;-75
2021/05/21 09:24:54;;;;;;;9.00;2.80;;;;;;;;;;5074219;28;20449;-77
2021/05/21 09:27:21;;;;;;;8.20;3.77;;;;;;;;;;5073987;28;20477;-76
2021/05/21 09:29:49;;;;;;;12.63;3.60;;;;;;;;;;5073869;28;20510;-75
2021/05/21 09:32:26;;;;;;;6.20;3.53;;;;;;;;;;5074361;28;20903;-75
2021/05/21 09:35:15;;;;;;;5.43;2.90;;;;;;;;;;5073967;28;20424;-75
2021/05/21 09:37:44;;;;;;;9.77;3.90;;;;;;;;;;5071093;28;20512;-75
2021/05/21 09:40:12;;;;;;;5.63;3.30;;;;;;;;;;5073220;28;20510;-75
2021/05/21 09:42:46;;;;;;;10.87;3.43;;;;;;;;;;5073899;28;20440;-76
2021/05/21 09:45:17;;;;;;;5.17;2.87;;;;;;;;;;5073358;28;20480;-76
2021/05/21 09:47:51;;;;;;;8.13;2.93;;;;;;;;;;5073579;28;20480;-76
2021/05/21 09:50:18;;;;;;;8.57;3.23;;;;;;;;;;5073184;28;20920;-76
2021/05/21 09:52:46;;;;;;;4.43;2.73;;;;;;;;;;5074267;28;20779;-76
2021/05/21 09:55:12;;;;;;;10.30;3.80;;;;;;;;;;5073277;28;20447;-76
2021/05/21 09:57:40;;;;;;;7.33;2.93;;;;;;;;;;5073297;28;20449;-76
2021/05/21 10:00:08;;;;;;;6.93;2.83;;;;;;;;;;5073799;28;21007;-76
2021/05/21 10:02:35;;;;;;;13.87;2.63;;;;;;;;;;5073410;28;20805;-76
2021/05/21 10:05:03;;;;;;;10.67;2.90;;;;;;;;;;5073637;28;20535;-76
2021/05/21 10:07:30;;;;;;;5.80;3.37;;;;;;;;;;5073269;28;20625;-77
2021/05/21 10:09:57;;;;;;;10.93;3.03;;;;;;;;;;5073375;28;20453;-76
2021/05/21 10:12:25;;;;;;;5.73;2.60;;;;;;;;;;5073831;28;20807;-76
2021/05/21 10:14:52;;;;;;;7.63;3.70;;;;;;;;;;5074030;28;20541;-76
2021/05/21 10:17:19;;;;;;;8.97;2.67;;;;;;;;;;5073219;28;20433;-76
2021/05/21 10:19:47;;;;;;;9.30;2.70;;;;;;;;;;5073314;28;20859;-77
2021/05/21 10:22:14;;;;;;;10.07;3.23;;;;;;;;;;5073188;28;20441;-76
2021/05/21 10:24:42;;;;;;;7.33;2.43;;;;;;;;;;5072884;28;20569;-76
2021/05/21 10:27:13;;;;;;;8.17;3.00;;;;;;;;;;5073017;28;20528;-77
2021/05/21 10:29:40;;;;;;;5.57;2.50;;;;;;;;;;5072985;28;20510;-77
2021/05/21 10:32:15;;;;;;;4.90;2.10;;;;;;;;;;5073281;28;20464;-76
2021/05/21 10:34:42;;;;;;;10.80;2.83;;;;;;;;;;5073097;28;20523;-77
2021/05/21 10:37:28;;;;;;;9.97;2.50;;;;;;;;;;5073251;28;20477;-77
2021/05/21 10:40:07;;;;;;;3.80;2.60;;;;;;;;;;5073342;28;21039;-76
2021/05/21 10:42:37;;;;;;;6.10;2.30;;;;;;;;;;5073815;28;20501;-78
2021/05/21 10:45:11;;;;;;;7.13;2.73;;;;;;;;;;5073706;28;20433;-76
2021/05/21 10:47:39;;;;;;;5.80;3.63;;;;;;;;;;5072866;28;20493;-76
2021/05/21 10:50:07;;;;;;;11.27;4.97;;;;;;;;;;5073066;28;20476;-76
2021/05/21 10:52:48;;;;;;;6.90;3.07;;;;;;;;;;5073185;28;20574;-76
2021/05/21 10:55:15;;;;;;;10.20;2.60;;;;;;;;;;5071486;28;20514;-77
2021/05/21 10:57:52;;;;;;;5.67;2.50;;;;;;;;;;5072877;28;20440;-76
2021/05/21 11:00:19;;;;;;;11.57;2.23;;;;;;;;;;5073205;28;20757;-76
2021/05/21 11:02:55;;;;;;;6.20;2.33;;;;;;;;;;5073213;28;20932;-77
2021/05/21 11:05:28;;;;;;;7.43;2.30;;;;;;;;;;5072882;28;20896;-76
2021/05/21 11:07:56;;;;;;;4.40;2.07;;;;;;;;;;5073293;28;20496;-77
2021/05/21 11:10:28;;;;;;;6.73;2.50;;;;;;;;;;5076408;28;20443;-76
2021/05/21 11:12:59;;;;;;;4.47;2.33;;;;;;;;;;5076513;28;20523;-77
2021/05/21 11:15:40;;;;;;;6.30;2.40;;;;;;;;;;5077013;28;20454;-77
2021/05/21 11:18:14;;;;;;;7.93;2.63;;;;;;;;;;5077419;28;20501;-77
2021/05/21 11:20:52;;;;;;;9.60;3.60;;;;;;;;;;5077013;28;20509;-77
2021/05/21 11:23:27;;;;;;;7.20;2.40;;;;;;;;;;5076306;28;20503;-76
2021/05/21 11:26:03;;;;;;;10.50;3.20;;;;;;;;;;5076438;28;20424;-76
2021/05/21 11:28:34;;;;;;;6.57;2.83;;;;;;;;;;5076250;28;20564;-77
2021/05/21 11:31:01;;;;;;;9.73;2.70;;;;;;;;;;5076259;28;20500;-77
2021/05/21 11:33:28;;;;;;;6.87;2.10;;;;;;;;;;5075873;28;20952;-77
2021/05/21 11:35:55;;;;;;;12.27;2.90;;;;;;;;;;5076515;28;20532;-76
2021/05/21 11:38:25;;;;;;;11.37;3.07;;;;;;;;;;5076266;28;20776;-77
2021/05/21 11:40:52;;;;;;;8.30;2.87;;;;;;;;;;5075611;28;20476;-76
2021/05/21 11:43:23;;;;;;;11.03;2.70;;;;;;;;;;5076231;28;20440;-75
2021/05/21 11:45:51;;;;;;;11.13;3.03;;;;;;;;;;5075859;28;20519;-76
2021/05/21 11:48:30;;;;;;;4.40;2.10;;;;;;;;;;5076626;28;20471;-76
2021/05/21 11:50:57;;;;;;;6.87;2.53;;;;;;;;;;5075731;28;20973;-76
2021/05/21 11:53:24;;;;;;;4.10;1.93;;;;;;;;;;5075908;28;20440;-77
2021/05/21 11:55:51;;;;;;;5.97;2.00;;;;;;;;;;5076112;28;20452;-77
2021/05/21 11:58:21;;;;;;;4.13;2.10;;;;;;;;;;5075927;28;20447;-76
2021/05/21 12:00:51;;;;;;;6.23;2.37;;;;;;;;;;5075858;28;20464;-76
2021/05/21 12:03:18;;;;;;;4.27;1.87;;;;;;;;;;5075736;28;20433;-76
2021/05/21 12:05:47;;;;;;;5.40;2.00;;;;;;;;;;5075545;28;20801;-76
2021/05/21 12:08:14;;;;;;;10.23;2.63;;;;;;;;;;5075092;28;20468;-76
2021/05/21 12:10:42;;;;;;;6.60;2.20;;;;;;;;;;5075850;28;20457;-77
2021/05/21 12:13:09;;;;;;;7.57;3.07;;;;;;;;;;5075527;28;20437;-77
2021/05/21 12:15:36;;;;;;;7.30;2.20;;;;;;;;;;5075398;28;20492;-77
2021/05/21 12:18:05;;;;;;;6.97;3.43;;;;;;;;;;5075554;28;20487;-80
2021/05/21 12:20:32;;;;;;;7.77;2.40;;;;;;;;;;5075749;28;20443;-77
2021/05/21 12:23:04;;;;;;;6.43;2.40;;;;;;;;;;5075557;28;20532;-77
2021/05/21 12:25:31;;;;;;;6.03;2.30;;;;;;;;;;5075845;28;20429;-76
2021/05/21 12:27:59;;;;;;;2.60;1.43;;;;;;;;;;5075327;28;20481;-78
2021/05/21 12:30:26;;;;;;;6.90;2.10;;;;;;;;;;5074953;28;20468;-78
2021/05/21 12:32:53;;;;;;;4.10;2.37;;;;;;;;;;5075246;28;20449;-78
2021/05/21 12:35:34;;;;;;;5.70;1.93;;;;;;;;;;5075233;28;20447;-78
2021/05/21 12:38:02;;;;;;;7.10;2.37;;;;;;;;;;5075053;28;20494;-81
2021/05/21 12:40:29;;;;;;;12.73;2.73;;;;;;;;;;5075009;28;20536;-77
2021/05/21 12:42:56;;;;;;;13.00;2.27;;;;;;;;;;5074881;28;20429;-76
2021/05/21 12:45:23;;;;;;;5.63;1.80;;;;;;;;;;5074917;28;20453;-71
2021/05/21 12:47:50;;;;;;;11.43;2.30;;;;;;;;;;5074485;28;20979;-77
2021/05/21 12:50:18;;;;;;;8.50;2.47;;;;;;;;;;5075175;28;20436;-76
2021/05/21 12:52:55;;;;;;;6.40;2.47;;;;;;;;;;5074715;28;20436;-76
2021/05/21 12:55:22;;;;;;;5.63;2.87;;;;;;;;;;5074276;28;21005;-76
2021/05/21 12:57:49;;;;;;;3.30;1.60;;;;;;;;;;5074550;28;20531;-76
2021/05/21 13:00:19;;;;;;;2.97;1.83;;;;;;;;;;5074531;28;20938;-77
2021/05/21 13:02:52;;;;;;;8.50;6.20;;;;;;;;;;5074559;28;20527;-76
2021/05/21 13:05:19;;;;;;;6.50;2.90;;;;;;;;;;5074398;28;20445;-76
2021/05/21 13:07:58;;;;;;;11.80;4.30;;;;;;;;;;5074637;28;20514;-78
2021/05/21 13:10:25;;;;;;;6.70;1.90;;;;;;;;;;5074186;28;20448;-78
2021/05/21 13:12:53;;;;;;;7.47;2.20;;;;;;;;;;5073137;28;20523;-78
2021/05/21 13:15:21;;;;;;;2.70;1.50;;;;;;;;;;5073794;28;20530;-78
2021/05/21 13:17:49;;;;;;;6.17;2.50;;;;;;;;;;5073898;28;20448;-77
2021/05/21 13:20:17;;;;;;;9.83;2.37;;;;;;;;;;5074655;28;20463;-78
2021/05/21 13:22:44;;;;;;;6.03;1.90;;;;;;;;;;5073893;28;20448;-80
2021/05/21 13:25:12;;;;;;;6.20;2.80;;;;;;;;;;5073982;28;20448;-78
2021/05/21 13:27:39;;;;;;;6.97;2.20;;;;;;;;;;5074007;28;20898;-79
2021/05/21 13:30:07;;;;;;;7.10;2.37;;;;;;;;;;5074466;28;20843;-78
2021/05/21 13:32:34;;;;;;;4.50;1.87;;;;;;;;;;5073748;28;20430;-79
2021/05/21 13:35:01;;;;;;;7.80;3.00;;;;;;;;;;5074119;28;20838;-77
2021/05/21 13:37:28;;;;;;;5.50;2.60;;;;;;;;;;5073730;28;20445;-78
2021/05/21 13:39:55;;;;;;;4.43;1.90;;;;;;;;;;5073631;28;20481;-78
2021/05/21 13:42:23;;;;;;;8.73;2.30;;;;;;;;;;5074246;28;20480;-78
2021/05/21 13:44:50;;;;;;;6.90;2.20;;;;;;;;;;5073747;28;20474;-78
2021/05/21 13:47:17;;;;;;;7.40;2.30;;;;;;;;;;5073744;28;20483;-78
2021/05/21 13:49:44;;;;;;;6.27;1.80;;;;;;;;;;5073726;28;20947;-76
2021/05/21 13:52:12;;;;;;;10.70;2.60;;;;;;;;;;5073585;28;20469;-78
2021/05/21 13:54:38;;;;;;;6.40;2.43;;;;;;;;;;5073737;28;20528;-78
2021/05/21 13:57:06;;;;;;;4.47;2.30;;;;;;;;;;5073582;28;20947;-79
2021/05/21 13:59:33;;;;;;;14.23;2.60;;;;;;;;;;5074002;28;21005;-77
2021/05/21 14:02:00;;;;;;;2.77;1.87;;;;;;;;;;5073419;28;20480;-77
2021/05/21 14:04:27;;;;;;;2.27;2.07;;;;;;;;;;5073554;28;20483;-77
2021/05/21 14:06:54;;;;;;;11.40;2.23;;;;;;;;;;5073196;28;21003;-77
2021/05/21 14:09:21;;;;;;;4.07;1.90;;;;;;;;;;5072984;28;20529;-77
2021/05/21 14:11:48;;;;;;;6.30;2.60;;;;;;;;;;5073471;28;20446;-77
2021/05/21 14:14:15;;;;;;;6.27;2.60;;;;;;;;;;5073205;28;20447;-79
2021/05/21 14:16:42;;;;;;;6.27;2.00;;;;;;;;;;5073878;28;20498;-77
2021/05/21 14:19:10;;;;;;;13.83;2.37;;;;;;;;;;5073597;28;20440;-77
2021/05/21 14:21:37;;;;;;;4.87;2.30;;;;;;;;;;5073301;28;20462;-77
2021/05/21 14:24:04;;;;;;;2.37;2.17;;;;;;;;;;5073645;28;20441;-78
2021/05/21 14:26:32;;;;;;;5.20;2.63;;;;;;;;;;5073026;28;20883;-78
2021/05/21 14:29:06;;;;;;;8.50;2.47;;;;;;;;;;5073340;28;20966;-79
2021/05/21 14:31:33;;;;;;;5.33;2.27;;;;;;;;;;5073281;28;20476;-77
2021/05/21 14:34:01;;;;;;;8.67;2.47;;;;;;;;;;5073392;28;20576;-78
2021/05/21 14:36:29;;;;;;;5.93;2.20;;;;;;;;;;5072962;28;20486;-76
2021/05/21 14:38:56;;;;;;;3.93;2.10;;;;;;;;;;5072891;28;20574;-80
2021/05/21 14:41:22;;;;;;;4.97;1.93;;;;;;;;;;5073361;28;20931;-78
2021/05/21 14:43:51;;;;;;;7.70;1.83;;;;;;;;;;5074210;28;20441;-77